Time;durP1;ratioP1;P1;durP2;ratioP2;P2;SDS_P1;SDS_P2;PMS_P1;PMS_P2;Temp;Humidity;BMP_temperature;BMP_pressure;BME280_temperature;BME280_humidity;BME280_pressure;Samples;Min_cycle;Max_cycle;Signal;HPM_P1;HPM_P2
2021/12/26 05:00:18;;;;;;;7.35;3.25;;;-6.80;99.90;;;;;;5951042;23;20186;31
2021/12/26 05:02:46;;;;;;;4.68;4.25;;;-6.80;99.90;;;;;;4930474;29;20325;-68
2021/12/26 05:05:13;;;;;;;5.32;3.30;;;-6.80;99.90;;;;;;4934267;29;20753;-69
2021/12/26 05:07:42;;;;;;;4.45;4.07;;;-6.80;99.90;;;;;;4934100;29;20213;-69
2021/12/26 05:10:11;;;;;;;3.65;3.35;;;-6.80;99.90;;;;;;4934451;29;20698;-68
2021/12/26 05:12:39;;;;;;;14.52;3.20;;;-6.70;99.90;;;;;;4915232;29;20233;-69
2021/12/26 05:15:09;;;;;;;3.80;3.60;;;-6.70;99.90;;;;;;4915265;29;20233;-69
2021/12/26 05:17:37;;;;;;;5.72;4.15;;;-6.80;99.90;;;;;;4914529;29;20630;-68
2021/12/26 05:20:05;;;;;;;3.50;3.30;;;-6.80;99.90;;;;;;4915006;29;20210;-68
2021/12/26 05:22:32;;;;;;;4.55;3.50;;;-6.80;99.90;;;;;;4914629;29;20703;-68
2021/12/26 05:24:58;;;;;;;3.65;3.45;;;-6.80;99.90;;;;;;4951903;23;20234;-68
2021/12/26 05:27:26;;;;;;;4.30;3.90;;;-6.80;99.90;;;;;;4933105;29;20761;-68
2021/12/26 05:29:52;;;;;;;4.07;3.88;;;-6.90;99.90;;;;;;4933360;29;20225;-69
2021/12/26 05:32:19;;;;;;;4.50;4.10;;;-6.90;99.90;;;;;;4931203;29;20212;-67
2021/12/26 05:34:48;;;;;;;3.50;3.20;;;-6.90;99.90;;;;;;4941781;29;20226;-68
2021/12/26 05:37:14;;;;;;;3.90;3.50;;;-6.90;99.90;;;;;;4938887;29;20233;-68
2021/12/26 05:39:42;;;;;;;4.53;3.45;;;-7.00;99.90;;;;;;4935523;28;20222;-68
2021/12/26 05:42:10;;;;;;;4.47;3.60;;;-7.00;99.90;;;;;;4944038;29;20244;-68
2021/12/26 05:44:37;;;;;;;3.20;3.00;;;-7.00;99.90;;;;;;4953460;28;20233;-68
2021/12/26 05:47:04;;;;;;;6.63;4.40;;;-7.00;99.90;;;;;;4928884;28;20258;-67
2021/12/26 05:49:31;;;;;;;3.38;3.15;;;-7.00;99.90;;;;;;4924514;29;20274;-68
2021/12/26 05:51:59;;;;;;;3.58;3.47;;;-7.00;99.90;;;;;;4918556;29;20213;-67
2021/12/26 05:54:25;;;;;;;3.75;3.53;;;-7.00;99.90;;;;;;4915121;29;20226;-68
2021/12/26 05:56:53;;;;;;;3.53;3.33;;;-7.00;99.90;;;;;;4921031;29;20326;-68
2021/12/26 05:59:20;;;;;;;3.30;3.20;;;-7.00;99.90;;;;;;4922371;29;20317;-68
2021/12/26 06:01:46;;;;;;;9.95;3.53;;;-7.10;99.90;;;;;;4944410;29;20208;-68
2021/12/26 06:04:13;;;;;;;3.20;3.00;;;-7.10;99.90;;;;;;4935582;28;20646;-68
2021/12/26 06:06:40;;;;;;;3.63;3.33;;;-7.10;99.90;;;;;;4937512;28;20226;-68
2021/12/26 06:09:08;;;;;;;3.42;3.13;;;-7.10;99.90;;;;;;4932253;29;20210;-68
2021/12/26 06:11:34;;;;;;;4.22;3.92;;;-7.10;99.90;;;;;;4952228;28;20212;-68
2021/12/26 06:14:01;;;;;;;3.83;3.17;;;-7.10;99.90;;;;;;4942692;28;20234;-67
2021/12/26 06:16:28;;;;;;;3.10;2.90;;;-7.10;99.90;;;;;;4932428;28;20351;-68
2021/12/26 06:18:55;;;;;;;6.57;3.25;;;-7.10;99.90;;;;;;4926120;29;20217;-69
2021/12/26 06:21:21;;;;;;;4.45;3.95;;;-7.10;99.90;;;;;;4915318;29;20218;-68
2021/12/26 06:23:51;;;;;;;4.88;4.47;;;-7.10;99.90;;;;;;4921574;29;20248;-69
2021/12/26 06:26:19;;;;;;;4.88;4.40;;;-7.00;99.90;;;;;;4946029;29;20698;-69
2021/12/26 06:28:46;;;;;;;8.60;6.45;;;-7.00;99.90;;;;;;4929242;29;20213;-67
2021/12/26 06:31:13;;;;;;;5.07;4.68;;;-7.00;99.90;;;;;;4933123;29;20630;-70
2021/12/26 06:33:40;;;;;;;5.43;4.97;;;-7.00;99.90;;;;;;4915197;29;20245;-67
2021/12/26 06:36:08;;;;;;;5.15;4.70;;;-7.00;99.90;;;;;;4935892;29;20661;-66
2021/12/26 06:38:35;;;;;;;3.63;3.33;;;-7.10;99.90;;;;;;4939711;29;20666;-68
2021/12/26 06:41:03;;;;;;;3.72;3.45;;;-7.10;99.90;;;;;;4951887;28;20209;-68
2021/12/26 06:43:32;;;;;;;5.05;4.35;;;-7.10;99.90;;;;;;4932756;28;20238;-69
2021/12/26 06:45:59;;;;;;;3.45;3.13;;;-7.10;99.90;;;;;;4933202;29;20576;-69
2021/12/26 06:48:25;;;;;;;3.35;3.25;;;-7.10;99.90;;;;;;4926782;29;20198;-69
2021/12/26 06:50:53;;;;;;;7.63;5.00;;;-7.10;99.90;;;;;;4951552;28;20260;-68
2021/12/26 06:53:20;;;;;;;5.45;4.55;;;-7.10;99.90;;;;;;4924152;28;20226;-69
2021/12/26 06:55:49;;;;;;;5.20;4.90;;;-7.00;99.90;;;;;;4914877;29;20285;-68
2021/12/26 06:58:17;;;;;;;4.82;4.43;;;-7.00;99.90;;;;;;4920458;29;20209;-69
2021/12/26 07:00:45;;;;;;;4.97;4.65;;;-7.00;99.90;;;;;;4932533;29;20254;-67
2021/12/26 07:03:12;;;;;;;7.25;5.13;;;-7.00;99.90;;;;;;4928543;29;20249;-69
2021/12/26 07:05:39;;;;;;;5.88;5.18;;;-7.00;99.90;;;;;;4920539;29;20642;-69
2021/12/26 07:08:06;;;;;;;6.43;5.03;;;-7.00;99.90;;;;;;4933334;29;20233;-68
2021/12/26 07:10:33;;;;;;;5.65;4.82;;;-7.00;99.90;;;;;;4918918;29;20580;-69
2021/12/26 07:13:00;;;;;;;8.57;5.25;;;-7.00;99.90;;;;;;4935608;29;20272;-67
2021/12/26 07:15:27;;;;;;;6.13;5.55;;;-6.90;99.90;;;;;;4951135;28;20201;-69
2021/12/26 07:17:55;;;;;;;11.35;6.03;;;-6.90;99.90;;;;;;4942589;28;20289;-69
2021/12/26 07:20:22;;;;;;;5.50;4.50;;;-6.90;99.90;;;;;;4919664;29;20218;-69
2021/12/26 07:22:48;;;;;;;4.70;4.40;;;-6.90;99.90;;;;;;4922321;29;20221;-68
2021/12/26 07:25:16;;;;;;;4.55;4.15;;;-6.90;99.90;;;;;;4921875;29;20249;-67
2021/12/26 07:27:43;;;;;;;8.10;6.43;;;-6.90;99.90;;;;;;4925208;29;20226;-68
2021/12/26 07:30:10;;;;;;;6.13;5.20;;;-6.90;99.90;;;;;;4917270;29;20294;-67
2021/12/26 07:32:37;;;;;;;5.63;4.53;;;-6.90;99.90;;;;;;4934753;29;20218;-68
2021/12/26 07:35:06;;;;;;;10.63;4.53;;;-6.80;99.90;;;;;;4937483;29;20624;-66
2021/12/26 07:37:33;;;;;;;3.85;3.65;;;-6.80;99.90;;;;;;4935696;29;20202;-67
2021/12/26 07:40:00;;;;;;;5.43;5.13;;;-6.80;99.90;;;;;;4940920;29;20206;-67
2021/12/26 07:42:26;;;;;;;5.30;4.88;;;-6.90;99.90;;;;;;4935566;29;20202;-66
2021/12/26 07:44:53;;;;;;;5.57;4.68;;;-6.80;99.90;;;;;;4936261;29;20234;-67
2021/12/26 07:47:20;;;;;;;5.25;4.75;;;-6.90;99.90;;;;;;4935396;29;20222;-68
2021/12/26 07:49:46;;;;;;;5.63;5.15;;;-6.90;99.90;;;;;;4947405;29;20213;-67
2021/12/26 07:52:21;;;;;;;5.82;3.90;;;-7.00;99.90;;;;;;4935395;28;20210;-69
2021/12/26 07:54:48;;;;;;;3.60;3.30;;;-7.10;99.90;;;;;;4936057;29;20236;-68
2021/12/26 07:57:15;;;;;;;8.05;3.80;;;-7.10;99.90;;;;;;4924918;29;20224;-69
2021/12/26 07:59:42;;;;;;;3.55;3.25;;;-7.10;99.90;;;;;;4945058;28;20205;-67
2021/12/26 08:02:09;;;;;;;4.35;3.95;;;-7.10;99.90;;;;;;4936174;29;20214;-68
2021/12/26 08:04:35;;;;;;;3.97;3.65;;;-7.10;99.90;;;;;;4937098;28;20297;-68
2021/12/26 08:07:02;;;;;;;4.80;4.45;;;-7.10;99.90;;;;;;4954118;28;20284;-68
2021/12/26 08:09:30;;;;;;;36.10;15.60;;;-7.10;99.90;;;;;;4954792;28;20213;-69
2021/12/26 08:11:57;;;;;;;26.73;14.90;;;-7.00;99.90;;;;;;4931793;29;20249;-68
2021/12/26 08:14:23;;;;;;;16.58;11.13;;;-6.90;99.90;;;;;;4920811;29;20270;-69
2021/12/26 08:16:50;;;;;;;7.50;5.40;;;-6.90;99.90;;;;;;4933989;29;20417;-68
2021/12/26 08:19:17;;;;;;;22.10;12.85;;;-6.90;99.90;;;;;;4919486;29;20221;-67
2021/12/26 08:21:44;;;;;;;7.82;6.63;;;-6.90;99.90;;;;;;4952475;28;20638;-69
2021/12/26 08:24:11;;;;;;;7.65;6.60;;;-6.80;99.90;;;;;;4916507;29;20345;-68
2021/12/26 08:26:40;;;;;;;9.93;8.32;;;-6.80;99.90;;;;;;4939391;28;20609;-71
2021/12/26 08:29:06;;;;;;;8.73;7.88;;;-6.80;99.90;;;;;;4935566;29;20462;-69
2021/12/26 08:31:33;;;;;;;8.57;6.35;;;-6.80;99.90;;;;;;4954008;28;20213;-68
2021/12/26 08:34:00;;;;;;;5.68;5.18;;;-6.80;99.90;;;;;;4948747;28;20722;-69
2021/12/26 08:36:27;;;;;;;13.60;6.18;;;-6.80;99.90;;;;;;4930484;29;20296;-68
2021/12/26 08:38:53;;;;;;;7.70;6.40;;;-6.80;99.90;;;;;;4928211;29;20213;-68
2021/12/26 08:41:23;;;;;;;8.00;5.55;;;-6.70;99.90;;;;;;4934190;29;20217;-69
2021/12/26 08:43:53;;;;;;;8.95;6.95;;;-6.70;99.90;;;;;;4927150;29;20233;-68
2021/12/26 08:46:20;;;;;;;5.55;4.90;;;-6.70;99.90;;;;;;4920765;29;20297;-69
2021/12/26 08:48:47;;;;;;;7.50;5.38;;;-6.70;99.90;;;;;;4933847;29;20206;-68
2021/12/26 08:51:14;;;;;;;5.20;4.82;;;-6.60;99.90;;;;;;4937514;29;20209;-68
2021/12/26 08:53:43;;;;;;;5.10;4.70;;;-6.60;99.90;;;;;;4948385;28;20281;-68
2021/12/26 08:56:10;;;;;;;6.88;6.20;;;-6.50;99.90;;;;;;4935550;29;20651;-67
2021/12/26 08:58:36;;;;;;;7.80;4.28;;;-6.40;99.90;;;;;;4928800;29;20195;-68
2021/12/26 09:01:05;;;;;;;5.50;5.00;;;-6.40;99.90;;;;;;4932960;29;20209;-68
2021/12/26 09:03:31;;;;;;;5.03;4.32;;;-6.40;99.90;;;;;;4939681;28;20233;-67
2021/12/26 09:05:58;;;;;;;6.20;4.15;;;-6.30;99.90;;;;;;4952522;28;20271;-67
2021/12/26 09:08:25;;;;;;;4.88;4.03;;;-6.30;99.90;;;;;;4940209;28;20626;-70
2021/12/26 09:10:51;;;;;;;5.88;3.85;;;-6.30;99.90;;;;;;4914034;29;20309;-67
2021/12/26 09:13:18;;;;;;;6.32;3.92;;;-6.20;99.90;;;;;;4923277;29;20332;-67
2021/12/26 09:15:45;;;;;;;5.15;4.65;;;-6.20;99.90;;;;;;4933275;29;20241;-68
2021/12/26 09:18:13;;;;;;;9.18;4.82;;;-6.10;99.90;;;;;;4932065;29;20202;-66
2021/12/26 09:20:40;;;;;;;6.95;4.40;;;-6.10;99.90;;;;;;4933492;29;20209;-68
2021/12/26 09:23:06;;;;;;;4.63;4.07;;;-6.00;99.90;;;;;;4926950;29;20656;-67
2021/12/26 09:25:33;;;;;;;5.38;4.47;;;-5.90;99.90;;;;;;4914493;29;20278;-69
2021/12/26 09:28:00;;;;;;;4.75;4.35;;;-5.90;99.90;;;;;;4918686;29;20238;-68
2021/12/26 09:30:26;;;;;;;11.25;5.35;;;-5.80;99.90;;;;;;4931025;29;20206;-68
2021/12/26 09:32:53;;;;;;;4.25;3.75;;;-5.70;99.90;;;;;;4929028;29;20209;-69
2021/12/26 09:35:21;;;;;;;4.20;3.90;;;-5.70;99.90;;;;;;4923672;29;20242;-68
2021/12/26 09:37:48;;;;;;;5.50;4.50;;;-5.60;99.90;;;;;;4942580;29;20214;-68
2021/12/26 09:40:17;;;;;;;7.43;4.88;;;-5.60;99.90;;;;;;4932823;29;20218;-68
2021/12/26 09:42:45;;;;;;;4.65;4.30;;;-5.50;99.90;;;;;;4931543;29;20245;-68
2021/12/26 09:45:12;;;;;;;9.57;5.25;;;-5.50;99.90;;;;;;4914392;29;20238;-68
2021/12/26 09:47:41;;;;;;;5.38;4.95;;;-5.50;99.90;;;;;;4938669;29;20261;-68
2021/12/26 09:50:10;;;;;;;10.68;5.63;;;-5.40;99.90;;;;;;4945615;28;20209;-68
2021/12/26 09:52:41;;;;;;;6.15;5.43;;;-5.40;99.90;;;;;;4929035;28;20261;-68
2021/12/26 09:55:09;;;;;;;5.88;5.45;;;-5.40;99.90;;;;;;4919719;29;20585;-69
2021/12/26 09:57:35;;;;;;;4.85;4.43;;;-5.40;99.90;;;;;;4919569;28;20198;-68
2021/12/26 10:00:17;;;;;;;8.00;6.20;;;-5.30;99.90;;;;;;4916147;29;20214;-68
2021/12/26 10:02:43;;;;;;;6.85;4.68;;;-5.30;99.90;;;;;;4929643;29;20214;-68
2021/12/26 10:05:10;;;;;;;14.38;6.22;;;-5.30;99.90;;;;;;4937021;29;20742;-68
2021/12/26 10:07:39;;;;;;;7.13;5.18;;;-5.20;99.90;;;;;;4914085;29;20403;-68
2021/12/26 10:10:09;;;;;;;4.20;3.90;;;-5.20;99.90;;;;;;4933862;29;20211;-68
2021/12/26 10:12:42;;;;;;;5.63;5.05;;;-5.20;99.90;;;;;;4913897;29;20214;-68
2021/12/26 10:15:10;;;;;;;5.40;4.88;;;-5.10;99.90;;;;;;4928915;29;20230;-68
2021/12/26 10:17:37;;;;;;;7.05;5.65;;;-5.00;99.90;;;;;;4932511;29;20202;-68
2021/12/26 10:20:07;;;;;;;8.55;5.22;;;-5.00;99.90;;;;;;4940126;29;20297;-68
2021/12/26 10:22:34;;;;;;;7.10;4.80;;;-4.90;99.90;;;;;;4940396;28;20210;-68
2021/12/26 10:25:09;;;;;;;7.78;5.00;;;-4.80;99.90;;;;;;4934499;29;20327;-68
2021/12/26 10:27:36;;;;;;;5.57;5.07;;;-4.80;99.90;;;;;;4931370;28;20233;-68
2021/12/26 10:30:06;;;;;;;7.55;4.95;;;-4.70;99.90;;;;;;4942387;28;20289;-68
2021/12/26 10:32:37;;;;;;;5.15;4.60;;;-4.60;99.90;;;;;;4951908;28;20232;-70
2021/12/26 10:35:08;;;;;;;5.18;4.82;;;-4.50;99.90;;;;;;4944558;28;20226;-68
2021/12/26 10:37:37;;;;;;;9.38;6.05;;;-4.50;99.90;;;;;;4932192;29;20218;-69
2021/12/26 10:40:11;;;;;;;9.93;5.00;;;-4.40;99.90;;;;;;4931751;29;20204;-68
2021/12/26 10:42:40;;;;;;;7.30;6.40;;;-4.30;99.90;;;;;;4932420;29;20273;-68
2021/12/26 10:45:09;;;;;;;8.30;7.13;;;-4.20;99.90;;;;;;4945746;29;20229;-68
2021/12/26 10:47:39;;;;;;;11.30;8.07;;;-4.20;99.90;;;;;;4932820;29;20230;-67
2021/12/26 10:50:08;;;;;;;5.60;5.20;;;-4.10;99.90;;;;;;4932450;29;20214;-68
2021/12/26 10:52:37;;;;;;;6.85;6.20;;;-4.00;99.90;;;;;;4933687;29;20214;-70
2021/12/26 10:55:08;;;;;;;8.20;7.00;;;-3.90;99.90;;;;;;4930788;29;20238;-67
2021/12/26 10:57:37;;;;;;;6.05;5.28;;;-3.90;99.90;;;;;;4940450;29;20213;-68
2021/12/26 11:00:16;;;;;;;9.15;4.20;;;-3.80;99.90;;;;;;4937902;29;20211;-69
2021/12/26 11:02:45;;;;;;;4.05;3.70;;;-3.60;99.90;;;;;;4932199;29;20228;-68
2021/12/26 11:05:14;;;;;;;4.28;3.88;;;-3.60;99.90;;;;;;4925229;29;20237;-70
2021/12/26 11:07:45;;;;;;;4.22;3.83;;;-3.50;99.90;;;;;;4933083;29;20282;-68
2021/12/26 11:10:17;;;;;;;3.67;2.63;;;-3.30;99.90;;;;;;4933823;29;20221;-68
2021/12/26 11:12:46;;;;;;;3.33;2.83;;;-3.30;99.90;;;;;;4929966;29;20788;-66
2021/12/26 11:15:14;;;;;;;3.25;3.05;;;-3.20;99.90;;;;;;4931422;29;20229;-67
2021/12/26 11:17:45;;;;;;;6.75;2.55;;;-3.10;99.90;;;;;;4936227;29;20210;-69
2021/12/26 11:20:25;;;;;;;3.50;3.40;;;-3.00;99.90;;;;;;4934957;29;20217;-70
2021/12/26 11:22:52;;;;;;;3.17;2.95;;;-2.90;99.90;;;;;;4935261;29;20205;-70
2021/12/26 11:25:20;;;;;;;2.90;2.60;;;-2.90;99.90;;;;;;4927403;29;20715;-68
2021/12/26 11:27:47;;;;;;;1.80;1.70;;;-2.80;99.90;;;;;;4933607;29;20718;-68
2021/12/26 11:30:14;;;;;;;6.05;3.20;;;-2.70;99.90;;;;;;4935427;28;20625;-68
2021/12/26 11:32:42;;;;;;;3.33;3.08;;;-2.60;99.90;;;;;;4926451;29;20206;-68
2021/12/26 11:35:10;;;;;;;4.90;4.03;;;-2.60;99.90;;;;;;4933067;29;20668;-68
2021/12/26 11:37:39;;;;;;;4.45;2.35;;;-2.60;99.90;;;;;;4916416;29;20210;-69
2021/12/26 11:40:09;;;;;;;1.58;1.48;;;-2.50;99.90;;;;;;4917461;29;20233;-68
2021/12/26 11:43:09;;;;;;;2.08;2.08;;;-2.50;99.90;;;;;;4917402;29;20214;-67
2021/12/26 11:45:45;;;;;;;2.10;1.90;;;-2.40;99.90;;;;;;4912762;29;20304;-67
2021/12/26 11:48:47;;;;;;;2.70;2.50;;;-2.40;99.90;;;;;;4917313;29;20253;-66
2021/12/26 11:51:47;;;;;;;4.65;2.33;;;-2.30;99.90;;;;;;4924004;29;20292;-67
2021/12/26 11:54:30;;;;;;;2.40;2.30;;;-2.30;99.90;;;;;;4934230;29;20230;-67
2021/12/26 11:57:10;;;;;;;3.80;2.95;;;-2.30;99.90;;;;;;4935938;29;20206;-69
2021/12/26 12:00:06;;;;;;;2.67;2.40;;;-2.20;99.90;;;;;;4923249;29;20254;-69
2021/12/26 12:02:41;;;;;;;2.10;2.00;;;-2.20;99.90;;;;;;4916937;29;20214;-66
2021/12/26 12:05:12;;;;;;;0.95;0.95;;;-2.10;99.90;;;;;;4917132;29;20225;-68
2021/12/26 12:07:48;;;;;;;4.13;3.45;;;-2.10;99.90;;;;;;4916022;29;20654;-69
2021/12/26 12:10:40;;;;;;;4.40;3.38;;;-2.00;99.90;;;;;;4916277;29;20222;-68
2021/12/26 12:13:07;;;;;;;1.92;1.45;;;-2.00;99.90;;;;;;4917625;29;20215;-68
2021/12/26 12:15:53;;;;;;;5.25;4.00;;;-2.00;99.90;;;;;;4916339;29;20246;-67
2021/12/26 12:18:24;;;;;;;2.67;2.58;;;-1.90;99.90;;;;;;4916164;29;20213;-67
2021/12/26 12:21:11;;;;;;;2.08;2.05;;;-1.80;99.90;;;;;;4930882;29;20217;-66
2021/12/26 12:23:54;;;;;;;2.47;1.73;;;-1.80;99.90;;;;;;4934671;29;20238;-68
2021/12/26 12:26:45;;;;;;;2.00;1.90;;;-1.80;99.90;;;;;;4930709;29;20206;-69
2021/12/26 12:29:14;;;;;;;1.70;1.70;;;-1.70;99.90;;;;;;4916013;29;20688;-67
2021/12/26 12:31:41;;;;;;;2.97;2.10;;;-1.70;99.90;;;;;;4915964;29;20217;-68
2021/12/26 12:34:11;;;;;;;1.75;1.55;;;-1.70;99.90;;;;;;4918107;29;20230;-68
2021/12/26 12:36:40;;;;;;;2.10;1.83;;;-1.70;99.90;;;;;;4927175;29;20295;-68
2021/12/26 12:39:17;;;;;;;2.90;2.47;;;-1.70;99.90;;;;;;4934701;29;20288;-68
2021/12/26 12:41:46;;;;;;;0.60;0.60;;;-1.60;99.90;;;;;;4933995;29;20643;-70
2021/12/26 12:44:30;;;;;;;2.28;2.17;;;-1.60;99.90;;;;;;4934175;29;20241;-67
2021/12/26 12:47:01;;;;;;;2.90;2.70;;;-1.60;99.90;;;;;;4934849;29;20210;-68
2021/12/26 12:49:50;;;;;;;2.60;2.45;;;-1.60;99.90;;;;;;4934247;29;20687;-67
2021/12/26 12:52:39;;;;;;;2.15;2.00;;;-1.60;99.90;;;;;;4917284;29;20558;-67
2021/12/26 12:55:08;;;;;;;3.35;2.40;;;-1.60;99.90;;;;;;4915570;29;20727;-68
2021/12/26 12:57:37;;;;;;;3.60;2.00;;;-1.60;99.90;;;;;;4926017;29;20210;-68
2021/12/26 13:00:07;;;;;;;2.40;2.30;;;-1.60;99.90;;;;;;4924328;29;20593;-69
2021/12/26 13:02:37;;;;;;;4.00;2.35;;;-1.60;99.90;;;;;;4953480;28;20217;-67
2021/12/26 13:05:06;;;;;;;2.80;2.53;;;-1.50;99.90;;;;;;4943440;28;20240;-66
2021/12/26 13:07:33;;;;;;;2.95;2.22;;;-1.50;99.90;;;;;;4933573;29;20218;-67
2021/12/26 13:10:01;;;;;;;3.90;3.38;;;-1.50;99.90;;;;;;4928356;29;20232;-66
2021/12/26 13:12:29;;;;;;;2.90;2.70;;;-1.50;99.90;;;;;;4925847;29;20225;-67
2021/12/26 13:14:57;;;;;;;3.95;3.22;;;-1.50;99.90;;;;;;4932678;29;20233;-67
2021/12/26 13:17:31;;;;;;;3.00;2.67;;;-1.50;99.90;;;;;;4935451;29;20205;-68
2021/12/26 13:20:03;;;;;;;5.57;2.95;;;-1.50;99.90;;;;;;4927392;29;20213;-67
2021/12/26 13:22:44;;;;;;;2.83;2.53;;;-1.50;99.90;;;;;;4930274;29;20214;-67
2021/12/26 13:25:13;;;;;;;3.60;3.33;;;-1.50;99.90;;;;;;4924947;29;20325;-70
2021/12/26 13:27:40;;;;;;;4.07;3.70;;;-1.50;99.90;;;;;;4938563;29;20208;-68
2021/12/26 13:30:08;;;;;;;3.55;3.25;;;-1.50;99.90;;;;;;4936942;28;20229;-69
2021/12/26 13:32:36;;;;;;;3.60;3.20;;;-1.50;99.90;;;;;;4933850;29;20209;-69
2021/12/26 13:35:04;;;;;;;3.22;3.00;;;-1.50;99.90;;;;;;4928192;29;20229;-68
2021/12/26 13:37:33;;;;;;;2.45;1.50;;;-1.50;99.90;;;;;;4950801;28;20213;-68
2021/12/26 13:40:03;;;;;;;3.28;3.08;;;-1.50;99.90;;;;;;4930470;29;20287;-68
2021/12/26 13:42:30;;;;;;;3.00;2.80;;;-1.50;99.90;;;;;;4939043;29;20711;-68
2021/12/26 13:44:57;;;;;;;6.57;3.88;;;-1.50;99.90;;;;;;4949087;28;20226;-67
2021/12/26 13:47:24;;;;;;;3.22;3.03;;;-1.60;99.90;;;;;;4936479;29;20214;-67
2021/12/26 13:50:05;;;;;;;2.22;2.10;;;-1.60;99.90;;;;;;4939878;29;20234;-68
2021/12/26 13:52:32;;;;;;;3.00;2.30;;;-1.60;99.90;;;;;;4934082;29;20213;-68
2021/12/26 13:54:59;;;;;;;4.32;3.50;;;-1.60;99.90;;;;;;4948704;29;20563;-67
2021/12/26 13:57:27;;;;;;;3.92;3.38;;;-1.60;99.90;;;;;;4948995;28;20621;-69
2021/12/26 13:59:55;;;;;;;2.72;2.63;;;-1.60;99.90;;;;;;4926343;29;20216;-69
2021/12/26 14:02:25;;;;;;;3.50;3.20;;;-1.60;99.90;;;;;;4929789;28;20206;-70
2021/12/26 14:04:54;;;;;;;2.40;2.20;;;-1.70;99.90;;;;;;4939938;29;20229;-68
2021/12/26 14:07:24;;;;;;;2.50;2.30;;;-1.70;99.90;;;;;;4941581;29;20644;-66
2021/12/26 14:09:52;;;;;;;2.20;2.10;;;-1.70;99.90;;;;;;4935154;28;20228;-68
2021/12/26 14:12:29;;;;;;;3.05;2.70;;;-1.70;99.90;;;;;;4940214;29;20225;-68
2021/12/26 14:14:58;;;;;;;5.25;2.53;;;-1.70;99.90;;;;;;4931938;29;20265;-68
2021/12/26 14:17:25;;;;;;;2.40;2.30;;;-1.80;99.90;;;;;;4933090;29;20228;-67
2021/12/26 14:19:55;;;;;;;2.33;2.08;;;-1.80;99.90;;;;;;4926122;29;20202;-67
2021/12/26 14:22:27;;;;;;;1.92;1.92;;;-1.80;99.90;;;;;;4936769;29;20212;-68
2021/12/26 14:24:53;;;;;;;2.28;2.17;;;-1.90;99.90;;;;;;4948880;28;20321;-67
2021/12/26 14:27:20;;;;;;;3.45;3.25;;;-1.90;99.90;;;;;;4924129;28;20476;-71
2021/12/26 14:29:59;;;;;;;4.68;3.00;;;-1.90;99.90;;;;;;4930185;29;20263;-68
2021/12/26 14:32:25;;;;;;;4.15;3.00;;;-1.90;99.90;;;;;;4922192;28;20233;-69
2021/12/26 14:34:52;;;;;;;6.05;3.20;;;-1.90;99.90;;;;;;4925227;29;20234;-67
2021/12/26 14:37:22;;;;;;;3.00;2.90;;;-2.00;99.90;;;;;;4929761;29;20202;-68
2021/12/26 14:39:52;;;;;;;4.95;3.00;;;-2.00;99.90;;;;;;4930671;29;20223;-69
2021/12/26 14:42:22;;;;;;;2.85;2.63;;;-2.10;99.90;;;;;;4938048;28;20599;-69
2021/12/26 14:44:51;;;;;;;2.92;2.70;;;-2.10;99.90;;;;;;4935869;29;20234;-69
2021/12/26 14:47:23;;;;;;;2.70;2.10;;;-2.10;99.90;;;;;;4936800;29;20221;-67
2021/12/26 14:49:53;;;;;;;4.25;3.95;;;-2.20;99.90;;;;;;4939076;29;20222;-69
2021/12/26 14:52:21;;;;;;;3.17;2.97;;;-2.20;99.90;;;;;;4928536;29;20289;-68
2021/12/26 14:54:50;;;;;;;4.00;3.00;;;-2.20;99.90;;;;;;4936329;29;20237;-67
2021/12/26 14:57:27;;;;;;;4.03;3.42;;;-2.30;99.90;;;;;;4931883;29;20221;-67
2021/12/26 14:59:57;;;;;;;2.83;2.70;;;-2.30;99.90;;;;;;4938160;29;20218;-67
2021/12/26 15:02:26;;;;;;;4.13;3.60;;;-2.30;99.90;;;;;;4930598;29;20209;-68
2021/12/26 15:05:02;;;;;;;3.55;3.35;;;-2.30;99.90;;;;;;4937064;29;20229;-69
2021/12/26 15:07:28;;;;;;;3.08;2.97;;;-2.40;99.90;;;;;;4936279;29;20302;-68
2021/12/26 15:10:00;;;;;;;3.97;3.67;;;-2.50;99.90;;;;;;4942390;29;20229;-69
2021/12/26 15:12:30;;;;;;;2.72;2.53;;;-2.50;99.90;;;;;;4948511;28;20286;-68
2021/12/26 15:15:26;;;;;;;3.05;2.75;;;-2.60;99.90;;;;;;4951663;29;20221;-67
2021/12/26 15:18:09;;;;;;;2.30;2.20;;;-2.60;99.90;;;;;;4906701;29;20203;-66
2021/12/26 15:20:44;;;;;;;3.60;3.30;;;-2.70;99.90;;;;;;4936073;29;20297;-68
2021/12/26 15:23:14;;;;;;;4.10;3.28;;;-2.70;99.90;;;;;;4938935;29;20529;-69
2021/12/26 15:25:44;;;;;;;4.40;4.10;;;-2.80;99.90;;;;;;4943156;29;20240;-69
2021/12/26 15:28:17;;;;;;;3.13;2.85;;;-2.80;99.90;;;;;;4933472;29;20202;-67
2021/12/26 15:30:47;;;;;;;7.35;4.82;;;-2.80;99.90;;;;;;4943881;29;20222;-67
2021/12/26 15:33:17;;;;;;;3.13;2.83;;;-2.90;99.90;;;;;;4923689;29;20523;-68
2021/12/26 15:35:49;;;;;;;3.25;3.03;;;-2.90;99.90;;;;;;4937425;29;20296;-70
2021/12/26 15:38:15;;;;;;;6.20;4.90;;;-3.00;99.90;;;;;;4923071;29;20213;-68
2021/12/26 15:40:42;;;;;;;5.85;5.30;;;-3.00;99.90;;;;;;4930127;29;20217;-69
2021/12/26 15:43:09;;;;;;;8.38;5.93;;;-3.10;99.90;;;;;;4930450;29;20203;-68
2021/12/26 15:45:35;;;;;;;7.45;5.22;;;-3.10;99.90;;;;;;4933465;29;20215;-68
2021/12/26 15:48:04;;;;;;;5.70;5.20;;;-3.20;99.90;;;;;;4929849;29;20198;-69
2021/12/26 15:50:30;;;;;;;6.70;5.60;;;-3.20;99.90;;;;;;4933153;29;20273;-68
2021/12/26 15:52:57;;;;;;;7.68;4.78;;;-3.30;99.90;;;;;;4941848;29;20202;-68
2021/12/26 15:55:25;;;;;;;6.35;4.55;;;-3.30;99.90;;;;;;4941685;29;20225;-68
2021/12/26 15:57:52;;;;;;;4.43;4.13;;;-3.40;99.90;;;;;;4939275;28;20562;-67
2021/12/26 16:00:19;;;;;;;4.72;4.30;;;-3.40;99.90;;;;;;4934014;29;20205;-68
2021/12/26 16:02:45;;;;;;;4.60;4.10;;;-3.40;99.90;;;;;;4933088;29;20233;-68
2021/12/26 16:05:14;;;;;;;6.78;4.72;;;-3.40;99.90;;;;;;4935409;29;20225;-68
2021/12/26 16:07:40;;;;;;;4.45;4.15;;;-3.50;99.90;;;;;;4924415;29;20218;-68
2021/12/26 16:10:08;;;;;;;4.88;3.47;;;-3.50;99.90;;;;;;4929164;29;20240;-68
2021/12/26 16:12:35;;;;;;;3.10;2.90;;;-3.50;99.90;;;;;;4930054;29;20201;-69
2021/12/26 16:15:04;;;;;;;2.38;2.28;;;-3.50;99.90;;;;;;4931427;29;20238;-68
2021/12/26 16:17:31;;;;;;;4.20;3.80;;;-3.50;99.90;;;;;;4934770;29;20225;-71
2021/12/26 16:19:58;;;;;;;4.20;3.65;;;-3.60;99.90;;;;;;4932035;29;20217;-68
2021/12/26 16:22:26;;;;;;;4.78;4.18;;;-3.60;99.90;;;;;;4933224;29;20217;-67
2021/12/26 16:24:53;;;;;;;4.32;4.03;;;-3.60;99.90;;;;;;4931300;29;20249;-69
2021/12/26 16:27:20;;;;;;;5.13;3.03;;;-3.60;99.90;;;;;;4936168;29;20261;-68
2021/12/26 16:29:46;;;;;;;4.88;3.95;;;-3.60;99.90;;;;;;4934026;29;20408;-68
2021/12/26 16:32:14;;;;;;;4.53;4.13;;;-3.70;99.90;;;;;;4934132;29;20219;-69
2021/12/26 16:34:42;;;;;;;5.10;4.60;;;-3.70;99.90;;;;;;4928360;29;20286;-69
2021/12/26 16:37:09;;;;;;;3.42;3.17;;;-3.70;99.90;;;;;;4926931;29;20217;-68
2021/12/26 16:39:37;;;;;;;4.40;4.00;;;-3.70;99.90;;;;;;4933282;29;20590;-68
2021/12/26 16:42:04;;;;;;;4.05;3.63;;;-3.70;99.90;;;;;;4935393;29;20269;-68
2021/12/26 16:44:31;;;;;;;6.30;4.65;;;-3.80;99.90;;;;;;4931388;29;20297;-69
2021/12/26 16:46:59;;;;;;;4.10;3.60;;;-3.80;99.90;;;;;;4936587;29;20265;-68
2021/12/26 16:49:26;;;;;;;6.70;4.13;;;-3.80;99.90;;;;;;4928143;29;20750;-69
2021/12/26 16:51:52;;;;;;;4.38;4.00;;;-3.80;99.90;;;;;;4932749;29;20215;-69
2021/12/26 16:54:24;;;;;;;4.85;4.22;;;-3.80;99.90;;;;;;4927569;29;20226;-69
2021/12/26 16:56:53;;;;;;;4.07;3.70;;;-3.80;99.90;;;;;;4932059;29;20239;-68
2021/12/26 16:59:20;;;;;;;4.20;3.90;;;-3.80;99.90;;;;;;4929186;29;20302;-68
2021/12/26 17:01:49;;;;;;;4.50;4.03;;;-3.80;99.90;;;;;;4934678;29;20565;-69
2021/12/26 17:04:17;;;;;;;7.15;3.85;;;-3.80;99.90;;;;;;4931221;29;20270;-68
2021/12/26 17:06:44;;;;;;;4.65;4.28;;;-3.90;99.90;;;;;;4935111;29;20210;-68
2021/12/26 17:09:11;;;;;;;5.78;5.25;;;-3.90;99.90;;;;;;4939177;28;20210;-68
2021/12/26 17:11:38;;;;;;;4.93;4.55;;;-3.90;99.90;;;;;;4925191;29;20202;-70
2021/12/26 17:14:06;;;;;;;3.70;2.38;;;-3.90;99.90;;;;;;4936798;29;20273;-67
2021/12/26 17:16:33;;;;;;;6.50;4.20;;;-3.90;99.90;;;;;;4924767;29;20202;-68
2021/12/26 17:18:59;;;;;;;4.40;4.05;;;-3.80;99.90;;;;;;4932652;29;20327;-68
2021/12/26 17:21:26;;;;;;;4.30;3.90;;;-3.80;99.90;;;;;;4931687;29;20207;-67
2021/12/26 17:23:53;;;;;;;7.13;5.60;;;-3.90;99.90;;;;;;4932113;29;20604;-69
2021/12/26 17:26:20;;;;;;;5.72;5.07;;;-3.90;99.90;;;;;;4927195;29;20210;-68
2021/12/26 17:28:46;;;;;;;5.03;4.63;;;-3.90;99.90;;;;;;4932389;29;20842;-69
2021/12/26 17:31:15;;;;;;;6.82;5.47;;;-3.90;99.90;;;;;;4929395;29;20230;-68
2021/12/26 17:33:42;;;;;;;6.78;5.47;;;-3.90;99.90;;;;;;4936796;29;20312;-69
2021/12/26 17:36:11;;;;;;;5.35;4.68;;;-3.90;99.90;;;;;;4931102;28;20235;-69
2021/12/26 17:38:41;;;;;;;5.53;5.03;;;-3.90;99.90;;;;;;4929233;29;20611;-70
2021/12/26 17:41:08;;;;;;;4.72;4.40;;;-3.90;99.90;;;;;;4936269;29;20201;-69
2021/12/26 17:43:36;;;;;;;6.40;5.80;;;-3.90;99.90;;;;;;4933400;29;20234;-70
2021/12/26 17:46:04;;;;;;;8.25;6.38;;;-3.90;99.90;;;;;;4934937;29;20205;-67
2021/12/26 17:48:32;;;;;;;5.15;4.68;;;-3.90;99.90;;;;;;4926951;28;20203;-69
2021/12/26 17:51:02;;;;;;;6.45;5.47;;;-3.90;99.90;;;;;;4932819;29;20245;-69
2021/12/26 17:53:29;;;;;;;4.75;4.35;;;-4.00;99.90;;;;;;4930631;29;20230;-68
2021/12/26 17:55:56;;;;;;;4.15;3.83;;;-4.00;99.90;;;;;;4929708;29;20245;-68